Time;durP1;ratioP1;P1;durP2;ratioP2;P2;SDS_P1;SDS_P2;PMS_P1;PMS_P2;Temp;Humidity;BMP_temperature;BMP_pressure;BME280_temperature;BME280_humidity;BME280_pressure;Samples;Min_cycle;Max_cycle;Signal;HPM_P1;HPM_P2
2022/12/06 00:01:36;;;;;;;13.88;7.40;;;;;;;4.42;100.00;101930.13;5130948;27;20128;-69
2022/12/06 00:04:10;;;;;;;12.48;7.22;;;;;;;4.42;100.00;101930.13;5116617;27;20046;-69
2022/12/06 00:06:50;;;;;;;15.45;7.72;;;;;;;4.44;100.00;101930.13;5132168;27;20039;-70
2022/12/06 00:09:25;;;;;;;13.85;7.38;;;;;;;4.41;100.00;101923.16;5119088;27;20071;-70
2022/12/06 00:11:53;;;;;;;12.60;7.50;;;;;;;4.43;100.00;101929.28;5113402;27;20143;-70
2022/12/06 00:14:22;;;;;;;14.60;7.57;;;;;;;4.42;100.00;101922.28;5119129;27;20060;-69
2022/12/06 00:16:50;;;;;;;13.30;7.28;;;;;;;4.42;100.00;101917.06;5118629;27;20131;-70
2022/12/06 00:19:21;;;;;;;14.93;7.55;;;;;;;4.44;100.00;101919.69;5128639;27;20097;-70
2022/12/06 00:21:49;;;;;;;14.57;7.93;;;;;;;4.44;100.00;101917.09;5117776;27;20040;-70
2022/12/06 00:24:20;;;;;;;15.13;7.85;;;;;;;4.45;100.00;101922.34;5124610;27;20036;-70
2022/12/06 00:26:49;;;;;;;16.52;7.80;;;;;;;4.43;100.00;101915.31;5127913;27;20046;-70
2022/12/06 00:29:23;;;;;;;14.85;7.40;;;;;;;4.45;100.00;101924.94;5118090;27;20043;-70
2022/12/06 00:31:50;;;;;;;15.02;7.80;;;;;;;4.43;100.00;101918.84;5122667;27;20050;-71
2022/12/06 00:34:18;;;;;;;15.73;6.97;;;;;;;4.43;100.00;101926.66;5131725;27;20044;-71
2022/12/06 00:36:45;;;;;;;17.80;8.00;;;;;;;4.44;100.00;101922.31;5132827;27;20497;-72
2022/12/06 00:39:15;;;;;;;13.77;7.32;;;;;;;4.44;100.00;101919.69;5128565;27;20092;-71
2022/12/06 00:41:43;;;;;;;27.50;8.15;;;;;;;4.44;100.00;101923.19;5129223;27;20042;-72
2022/12/06 00:44:12;;;;;;;16.17;7.60;;;;;;;4.45;100.00;101922.34;5130494;27;20055;-71
2022/12/06 00:46:40;;;;;;;18.20;7.50;;;;;;;4.45;100.00;101930.19;5128511;27;20067;-72
2022/12/06 00:49:08;;;;;;;17.95;7.00;;;;;;;4.45;100.00;101926.66;5132291;27;20046;-71
2022/12/06 00:51:37;;;;;;;14.13;6.90;;;;;;;4.46;100.00;101926.72;5132200;27;20036;-71
2022/12/06 00:54:06;;;;;;;12.18;6.65;;;;;;;4.47;100.00;101931.09;5123735;27;20052;-70
2022/12/06 00:56:36;;;;;;;13.85;7.40;;;;;;;4.48;100.00;101935.41;5120482;27;20059;-70
2022/12/06 00:59:05;;;;;;;13.90;7.15;;;;;;;4.48;100.00;101926.72;5125674;27;20044;-70
2022/12/06 01:01:34;;;;;;;14.38;6.78;;;;;;;4.45;100.00;101927.56;5127174;27;20353;-70
2022/12/06 01:04:05;;;;;;;13.93;6.75;;;;;;;4.44;100.00;101930.13;5132609;27;20127;-69
2022/12/06 01:06:35;;;;;;;12.10;6.50;;;;;;;4.42;100.00;101922.28;5126355;27;20055;-70
2022/12/06 01:09:07;;;;;;;10.77;6.20;;;;;;;4.43;100.00;101931.88;5125996;27;20091;-69
2022/12/06 01:11:35;;;;;;;13.88;7.00;;;;;;;4.42;100.00;101943.19;5136588;27;20036;-69
2022/12/06 01:14:03;;;;;;;10.57;6.78;;;;;;;4.42;100.00;101937.97;5127431;27;20052;-69
2022/12/06 01:16:31;;;;;;;12.25;6.38;;;;;;;4.43;100.00;101931.00;5132128;27;20058;-69
2022/12/06 01:19:03;;;;;;;12.75;6.47;;;;;;;4.43;100.00;101936.22;5135472;27;20110;-69
2022/12/06 01:21:31;;;;;;;10.63;6.30;;;;;;;4.42;100.00;101929.28;5112394;27;20059;-70
2022/12/06 01:23:58;;;;;;;10.98;6.30;;;;;;;4.41;100.00;101930.13;5116722;27;20098;-69
2022/12/06 01:26:32;;;;;;;9.05;5.85;;;;;;;4.41;100.00;101933.59;5131281;27;20718;-69
2022/12/06 01:29:00;;;;;;;14.07;6.20;;;;;;;4.40;100.00;101931.84;5127502;27;20048;-70
2022/12/06 01:31:28;;;;;;;13.13;6.45;;;;;;;4.41;100.00;101936.22;5129210;27;20031;-70
2022/12/06 01:34:12;;;;;;;11.00;6.07;;;;;;;4.42;100.00;101937.09;5119462;27;20040;-70
2022/12/06 01:36:40;;;;;;;10.82;6.05;;;;;;;4.42;100.00;101939.72;5117051;27;20044;-71
2022/12/06 07:19:15;;;;;;;23.10;9.85;;;;;;;4.13;100.00;101887.97;4932439;28;20146;-70
2022/12/06 07:21:42;;;;;;;23.75;10.30;;;;;;;4.09;100.00;101884.44;4954016;28;20095;-70
2022/12/06 07:24:09;;;;;;;23.67;9.85;;;;;;;4.10;100.00;101888.81;4951113;28;20047;-70
2022/12/06 07:26:36;;;;;;;18.20;10.00;;;;;;;4.10;100.00;101893.16;4948466;28;20048;-70
2022/12/06 07:29:05;;;;;;;22.67;10.60;;;;;;;4.10;100.00;101896.66;4950083;28;20056;-70
2022/12/06 07:31:35;;;;;;;19.80;9.68;;;;;;;4.12;100.00;101901.91;4938548;28;20064;-70
2022/12/06 07:34:02;;;;;;;19.90;9.88;;;;;;;4.12;100.00;101894.94;4944467;28;20501;-70
2022/12/06 07:36:31;;;;;;;24.13;9.63;;;;;;;4.13;100.00;101898.41;4935544;28;20581;-69
2022/12/06 07:38:59;;;;;;;23.48;9.82;;;;;;;4.16;100.00;101899.34;4932550;29;20151;-70
2022/12/06 07:47:30;;;;;;;25.23;10.95;;;;;;;4.22;100.00;101897.66;4931954;28;20036;-70
2022/12/06 07:49:58;;;;;;;22.42;9.52;;;;;;;4.26;100.00;101908.16;4951506;28;20080;-71
2022/12/06 07:52:34;;;;;;;20.48;9.32;;;;;;;4.26;100.00;101902.94;4941411;28;20073;-70
2022/12/06 07:55:03;;;;;;;20.15;9.20;;;;;;;4.28;100.00;101902.94;4941909;28;20130;-70
2022/12/06 07:57:31;;;;;;;24.10;10.23;;;;;;;4.29;100.00;101899.50;4938852;28;20104;-70
2022/12/06 08:00:06;;;;;;;22.92;9.73;;;;;;;4.30;100.00;101904.75;4937033;28;20083;-69
2022/12/06 08:02:37;;;;;;;23.83;9.30;;;;;;;4.33;100.00;101909.13;4936747;28;20055;-70
2022/12/06 08:05:06;;;;;;;14.20;7.88;;;;;;;4.37;100.00;101915.25;4936826;28;20048;-70
2022/12/06 08:07:33;;;;;;;16.30;8.18;;;;;;;4.39;100.00;101913.56;4934446;28;20044;-70
2022/12/06 08:10:01;;;;;;;16.23;8.10;;;;;;;4.39;100.00;101913.56;4943588;28;20817;-70
2022/12/06 08:12:30;;;;;;;18.58;8.63;;;;;;;4.41;100.00;101919.69;4952330;28;20052;-70
2022/12/06 08:14:58;;;;;;;17.25;7.35;;;;;;;4.41;100.00;101914.44;4936524;28;20047;-70
2022/12/06 08:17:28;;;;;;;15.45;8.07;;;;;;;4.41;100.00;101910.09;4933597;28;20044;-70
2022/12/06 08:19:56;;;;;;;17.42;7.30;;;;;;;4.42;100.00;101909.25;4945842;28;20430;-70
2022/12/06 08:22:23;;;;;;;11.60;6.95;;;;;;;4.46;100.00;101913.66;4946588;28;20219;-71
2022/12/06 08:24:50;;;;;;;14.48;7.45;;;;;;;4.46;100.00;101903.22;4941664;28;20072;-71
2022/12/06 08:27:17;;;;;;;17.00;7.78;;;;;;;4.48;100.00;101913.66;4938245;28;20044;-71
2022/12/06 08:29:44;;;;;;;13.63;7.13;;;;;;;4.52;100.00;101910.25;4935637;28;20046;-71
2022/12/06 08:32:11;;;;;;;17.85;7.47;;;;;;;4.53;100.00;101921.56;4945663;28;20067;-71
2022/12/06 08:34:38;;;;;;;13.55;7.25;;;;;;;4.56;100.00;101921.59;4934962;29;20067;-71
2022/12/06 08:37:05;;;;;;;14.40;7.43;;;;;;;4.57;100.00;101913.78;4941200;28;20040;-71
2022/12/06 08:39:32;;;;;;;16.52;7.38;;;;;;;4.61;100.00;101919.91;4954284;28;20051;-71
2022/12/06 08:42:02;;;;;;;14.50;7.80;;;;;;;4.62;100.00;101913.81;4954196;28;20051;-71
2022/12/06 08:44:31;;;;;;;15.55;7.28;;;;;;;4.64;100.00;101930.41;4939001;28;20048;-70
2022/12/06 08:47:00;;;;;;;14.95;7.45;;;;;;;4.65;100.00;101935.63;4938540;28;20048;-69
2022/12/06 08:49:29;;;;;;;20.27;8.27;;;;;;;4.65;100.00;101929.53;4954164;28;20062;-69
2022/12/06 08:51:58;;;;;;;15.95;8.10;;;;;;;4.67;100.00;101930.44;4937354;28;20144;-70
2022/12/06 08:54:26;;;;;;;15.02;7.55;;;;;;;4.71;100.00;101926.13;4916323;28;20217;-70
2022/12/06 08:56:54;;;;;;;15.75;7.82;;;;;;;4.73;100.00;101930.50;4934325;28;20387;-70
2022/12/06 08:59:21;;;;;;;14.30;7.20;;;;;;;4.75;100.00;101934.00;4935304;28;20048;-70
2022/12/06 09:01:49;;;;;;;14.82;7.07;;;;;;;4.77;100.00;101932.31;4934943;28;20115;-70
2022/12/06 09:04:16;;;;;;;12.98;6.93;;;;;;;4.81;100.00;101939.28;4938286;28;20040;-70
2022/12/06 09:06:45;;;;;;;17.75;7.88;;;;;;;4.83;100.00;101934.09;4950226;28;20039;-71
2022/12/06 09:09:16;;;;;;;15.05;7.10;;;;;;;4.85;100.00;101928.88;4933429;28;21623;-71
2022/12/06 09:11:45;;;;;;;16.27;7.05;;;;;;;4.90;100.00;101932.41;4933448;28;20044;-71
2022/12/06 09:14:16;;;;;;;12.20;6.28;;;;;;;4.94;100.00;101926.38;4943810;28;20044;-71
2022/12/06 09:16:50;;;;;;;10.73;6.15;;;;;;;4.95;100.00;101926.38;4947312;28;20118;-70
2022/12/06 09:19:18;;;;;;;14.52;6.10;;;;;;;5.01;100.00;101935.16;4943942;28;20040;-70
2022/12/06 09:21:45;;;;;;;15.50;6.32;;;;;;;5.03;100.00;101931.69;4964599;28;20513;-70
2022/12/06 09:24:16;;;;;;;13.30;6.55;;;;;;;5.06;100.00;101931.72;4963555;28;20425;-70
2022/12/06 09:26:44;;;;;;;10.38;6.45;;;;;;;5.10;100.00;101932.63;4961289;28;20509;-70
2022/12/06 09:29:11;;;;;;;12.10;6.72;;;;;;;5.11;100.00;101935.25;4948693;28;20044;-71
2022/12/06 09:31:39;;;;;;;12.50;5.88;;;;;;;5.08;99.89;101931.72;4956400;28;20043;-70
2022/12/06 09:34:10;;;;;;;8.32;5.45;;;;;;;5.01;99.38;101936.00;4969856;28;20055;-70
2022/12/06 09:37:00;;;;;;;12.73;5.93;;;;;;;4.90;99.33;101943.75;4963415;28;20043;-70
2022/12/06 09:39:34;;;;;;;11.20;5.07;;;;;;;4.78;99.10;101949.69;4964768;28;20032;-71
2022/12/06 09:42:36;;;;;;;9.57;5.50;;;;;;;4.65;98.88;101943.47;4956088;28;20569;-71
2022/12/06 09:45:28;;;;;;;12.27;5.75;;;;;;;4.56;99.05;101947.72;4952483;28;20043;-70
2022/12/06 09:48:29;;;;;;;10.93;5.47;;;;;;;4.54;99.30;101945.06;4944193;28;20052;-71
2022/12/06 09:51:08;;;;;;;12.18;6.13;;;;;;;4.59;99.22;101943.41;4948305;28;20035;-71
2022/12/06 09:54:06;;;;;;;12.45;6.03;;;;;;;4.66;99.27;101936.53;4934431;28;20127;-71
2022/12/06 09:56:59;;;;;;;11.20;6.20;;;;;;;4.71;99.26;101941.78;4950945;28;20488;-71
2022/12/06 09:59:52;;;;;;;11.48;6.28;;;;;;;4.77;99.49;101942.75;4946626;28;20426;-71
2022/12/06 10:03:05;;;;;;;12.55;5.93;;;;;;;4.82;99.17;101942.81;4953359;28;21573;-71
2022/12/06 10:05:56;;;;;;;10.63;5.80;;;;;;;4.87;98.93;101932.41;4943177;28;20086;-71
2022/12/06 10:08:46;;;;;;;16.67;6.07;;;;;;;4.92;98.89;101928.97;4946134;28;20048;-71
2022/12/06 10:12:10;;;;;;;11.77;5.68;;;;;;;4.97;98.77;101931.63;4944425;28;20075;-71
2022/12/06 10:15:31;;;;;;;10.18;5.20;;;;;;;5.04;97.74;101929.94;4952737;28;20483;-71
2022/12/06 10:18:23;;;;;;;7.65;5.03;;;;;;;5.08;97.40;101924.78;4875880;29;20077;-70
2022/12/06 10:21:23;;;;;;;14.23;5.75;;;;;;;5.11;97.36;101916.09;4945307;28;20111;-70
2022/12/06 10:24:26;;;;;;;10.02;4.82;;;;;;;5.17;97.32;101923.97;4945753;28;20115;-71
2022/12/06 10:27:05;;;;;;;14.15;5.47;;;;;;;5.20;96.78;101918.78;4961602;28;20050;-71
2022/12/06 10:30:22;;;;;;;7.53;3.80;;;;;;;5.27;96.08;101927.56;4946259;28;20541;-70
2022/12/06 10:33:40;;;;;;;8.98;4.10;;;;;;;5.29;95.90;101918.00;4934370;28;20071;-71
2022/12/06 10:36:14;;;;;;;6.43;4.03;;;;;;;5.35;95.89;101912.81;4943308;28;20110;-71
2022/12/06 10:38:54;;;;;;;9.57;4.80;;;;;;;5.42;95.17;101913.75;4949178;28;20050;-71
2022/12/06 10:41:32;;;;;;;7.85;4.10;;;;;;;5.49;95.30;101912.06;4948749;28;20043;-70
2022/12/06 10:44:21;;;;;;;9.35;5.25;;;;;;;5.57;95.06;101911.25;4958484;28;20047;-71
2022/12/06 10:47:07;;;;;;;8.57;4.47;;;;;;;5.62;94.87;101910.41;4949882;28;20051;-71
2022/12/06 10:50:02;;;;;;;11.45;4.20;;;;;;;5.69;95.07;101917.44;4958215;28;20048;-71
2022/12/06 10:52:50;;;;;;;6.43;3.45;;;;;;;5.75;94.53;101913.13;4957525;28;20054;-70
2022/12/06 10:55:38;;;;;;;6.03;3.70;;;;;;;5.74;93.55;101905.28;4949595;28;20048;-70
2022/12/06 10:58:40;;;;;;;8.35;4.68;;;;;;;5.69;93.62;101913.09;4951732;28;20534;-70
2022/12/06 11:01:19;;;;;;;7.18;3.90;;;;;;;5.75;92.93;101900.03;4951470;28;20046;-70
2022/12/06 11:04:20;;;;;;;9.52;3.95;;;;;;;5.74;92.92;101906.13;4950339;28;20048;-70
2022/12/06 11:07:10;;;;;;;6.70;3.88;;;;;;;5.69;92.37;101918.31;4948416;28;20051;-70
2022/12/06 11:09:48;;;;;;;9.32;5.00;;;;;;;5.68;92.67;101915.69;4948782;28;20040;-70
2022/12/06 11:12:30;;;;;;;6.90;3.67;;;;;;;5.74;93.23;101910.50;4958965;28;20043;-70
2022/12/06 11:15:17;;;;;;;6.38;4.40;;;;;;;5.85;92.75;101907.94;4961259;28;20054;-70
2022/12/06 11:17:52;;;;;;;8.55;4.05;;;;;;;5.86;93.07;101907.94;4964467;28;20051;-70
2022/12/06 11:20:37;;;;;;;7.07;3.50;;;;;;;5.93;92.66;101911.47;4954348;28;20126;-70
2022/12/06 11:23:23;;;;;;;10.82;4.40;;;;;;;5.96;92.96;101911.50;4963576;28;20043;-70
2022/12/06 11:26:21;;;;;;;6.45;3.20;;;;;;;6.03;92.62;101904.59;4966520;28;20043;-70
2022/12/06 11:29:13;;;;;;;6.10;3.08;;;;;;;6.14;91.38;101904.66;4966729;28;20058;-70
2022/12/06 11:31:45;;;;;;;6.18;2.78;;;;;;;6.11;90.54;101896.78;4949448;28;20047;-70
2022/12/06 11:34:19;;;;;;;6.97;2.65;;;;;;;6.10;90.53;101890.69;4948440;28;20212;-70
2022/12/06 11:36:51;;;;;;;8.45;2.88;;;;;;;6.13;90.18;101898.56;4953239;28;20055;-70
2022/12/06 11:39:30;;;;;;;8.73;2.88;;;;;;;6.16;89.79;101884.59;4958672;28;20043;-71
2022/12/06 11:42:02;;;;;;;5.45;3.13;;;;;;;6.21;90.08;101889.00;4945781;28;20122;-70
2022/12/06 11:45:36;;;;;;;6.05;2.90;;;;;;;6.27;90.94;101888.16;4952675;28;20043;-70
2022/12/06 11:48:20;;;;;;;6.47;2.90;;;;;;;6.30;90.82;101877.69;4871837;29;20553;-70
2022/12/06 11:50:51;;;;;;;7.33;3.00;;;;;;;6.27;90.88;101874.16;4952730;28;20055;-70
2022/12/06 11:53:39;;;;;;;6.53;3.05;;;;;;;6.25;90.57;101881.16;4956689;28;20046;-71
2022/12/06 11:56:22;;;;;;;5.32;2.90;;;;;;;6.28;90.37;101886.38;4947791;28;20568;-71
2022/12/06 11:59:23;;;;;;;4.90;2.50;;;;;;;6.38;90.20;101888.16;4955335;28;20520;-71
2022/12/06 12:02:01;;;;;;;4.22;2.65;;;;;;;6.34;88.60;101884.66;4955019;28;20046;-71
2022/12/06 12:04:54;;;;;;;6.43;2.50;;;;;;;6.32;88.48;101875.06;4954904;28;20050;-71
2022/12/06 12:07:23;;;;;;;8.27;2.50;;;;;;;6.36;88.92;101876.81;4952975;28;20138;-72
2022/12/06 12:10:21;;;;;;;7.90;3.38;;;;;;;6.45;86.89;101869.00;4954590;28;20134;-71
2022/12/06 12:15:36;;;;;;;7.47;2.30;;;;;;;6.39;85.86;101866.34;4955187;28;20055;-72
2022/12/06 12:18:05;;;;;;;7.03;2.95;;;;;;;6.37;85.40;101863.75;4955229;28;20046;-72
2022/12/06 12:20:45;;;;;;;6.95;2.53;;;;;;;6.39;84.98;101860.25;4954032;28;20064;-72
2022/12/06 12:23:26;;;;;;;12.07;4.07;;;;;;;6.41;85.30;101869.84;4953842;28;20783;-72
2022/12/06 12:26:17;;;;;;;6.22;2.95;;;;;;;6.45;85.72;101860.25;4954365;28;20083;-72
2022/12/06 12:29:07;;;;;;;7.95;3.58;;;;;;;6.43;84.83;101852.41;4954179;28;20898;-72
2022/12/06 12:31:46;;;;;;;5.57;2.80;;;;;;;6.44;85.50;101854.16;4953668;28;20048;-72
2022/12/06 12:34:26;;;;;;;6.07;2.72;;;;;;;6.45;84.88;101855.03;4954275;28;20067;-72
2022/12/06 12:37:17;;;;;;;10.43;2.83;;;;;;;6.48;84.25;101855.91;4954024;28;20048;-72
2022/12/06 12:39:52;;;;;;;5.82;2.72;;;;;;;6.49;84.89;101851.56;4953993;28;20715;-72
2022/12/06 12:42:33;;;;;;;6.88;2.35;;;;;;;6.52;83.34;101844.56;4953884;28;20043;-72
2022/12/06 12:45:04;;;;;;;10.65;2.22;;;;;;;6.51;82.35;101845.44;4954127;28;20048;-72
2022/12/06 12:47:31;;;;;;;4.50;2.17;;;;;;;6.53;82.44;101846.31;4953479;28;20047;-72
2022/12/06 12:50:12;;;;;;;9.60;2.65;;;;;;;6.53;83.21;101846.31;4953926;28;20047;-72
2022/12/06 12:52:41;;;;;;;5.35;2.20;;;;;;;6.59;82.50;101849.81;4953973;28;20052;-72
2022/12/06 12:55:12;;;;;;;10.80;2.63;;;;;;;6.61;83.02;101848.09;4953990;28;20043;-72
2022/12/06 12:57:42;;;;;;;4.28;2.25;;;;;;;6.63;83.33;101846.34;4953523;28;20063;-72
2022/12/06 13:00:24;;;;;;;9.35;2.42;;;;;;;6.65;81.65;101848.09;4953982;28;20044;-72
2022/12/06 13:03:00;;;;;;;8.02;2.60;;;;;;;6.64;81.79;101840.25;4953332;28;20050;-72
2022/12/06 13:05:35;;;;;;;6.85;2.58;;;;;;;6.65;81.85;101835.00;4953372;28;20052;-73
2022/12/06 13:08:20;;;;;;;8.77;2.42;;;;;;;6.65;82.78;101839.38;4953682;28;20062;-72
2022/12/06 13:10:53;;;;;;;7.10;2.40;;;;;;;6.65;83.27;101831.50;4953778;28;20075;-72
2022/12/06 13:13:38;;;;;;;12.63;2.50;;;;;;;6.73;83.53;101826.25;4953694;28;20054;-72
2022/12/06 13:16:13;;;;;;;8.27;2.17;;;;;;;6.81;84.14;101833.25;4953671;28;20826;-73
2022/12/06 13:18:47;;;;;;;8.45;2.05;;;;;;;6.89;82.72;101827.16;4952729;28;20087;-72
2022/12/06 13:21:36;;;;;;;6.93;2.47;;;;;;;6.91;80.24;101825.41;4952876;28;20059;-72
2022/12/06 13:24:22;;;;;;;8.05;2.60;;;;;;;6.94;80.80;101822.81;4952660;28;20764;-72
2022/12/06 13:26:59;;;;;;;5.65;2.03;;;;;;;6.94;81.42;101820.19;4953324;28;20048;-72
2022/12/06 13:29:36;;;;;;;6.68;2.00;;;;;;;6.94;80.78;101815.78;4953309;28;20401;-72
2022/12/06 13:32:18;;;;;;;5.82;1.80;;;;;;;6.92;80.89;101817.53;4952012;28;20055;-72
2022/12/06 13:34:56;;;;;;;7.20;2.65;;;;;;;6.94;81.35;101822.81;4953102;28;20044;-72
2022/12/06 13:37:49;;;;;;;3.58;2.08;;;;;;;6.91;79.58;101821.06;4953468;28;20134;-72
2022/12/06 13:40:31;;;;;;;5.05;2.40;;;;;;;6.87;80.58;101819.28;4953056;28;20043;-72
2022/12/06 13:43:03;;;;;;;6.15;2.50;;;;;;;6.83;80.66;101817.53;4952665;28;20047;-72
2022/12/06 13:45:48;;;;;;;4.97;2.10;;;;;;;6.82;80.40;101821.91;4953181;28;20473;-72
2022/12/06 13:48:24;;;;;;;5.10;2.10;;;;;;;6.81;79.86;101816.69;4952491;28;20054;-72
2022/12/06 13:51:31;;;;;;;4.82;1.98;;;;;;;6.77;80.96;101822.78;4952217;28;20496;-72
2022/12/06 13:54:03;;;;;;;13.18;3.40;;;;;;;6.73;81.00;101818.38;4938152;28;20127;-72
2022/12/06 13:56:34;;;;;;;8.85;2.00;;;;;;;6.72;81.14;101821.88;4956377;28;20051;-72
2022/12/06 13:59:11;;;;;;;6.65;2.00;;;;;;;6.69;79.77;101817.53;4953403;28;20056;-72
2022/12/06 14:01:52;;;;;;;6.32;2.38;;;;;;;6.65;80.00;101811.41;4951610;28;20070;-72
2022/12/06 14:04:25;;;;;;;8.05;2.25;;;;;;;6.64;80.40;101811.41;4960450;28;20094;-72
2022/12/06 14:07:02;;;;;;;5.63;2.38;;;;;;;6.62;80.36;101807.91;4955142;28;20044;-72
2022/12/06 14:09:49;;;;;;;10.23;2.50;;;;;;;6.58;82.17;101809.66;4952990;28;20610;-72
2022/12/06 14:12:26;;;;;;;6.97;2.67;;;;;;;6.60;82.00;101807.91;4958941;28;20119;-72
2022/12/06 14:15:01;;;;;;;7.30;2.22;;;;;;;6.57;82.58;101802.66;4954171;28;20047;-72
2022/12/06 14:17:42;;;;;;;6.50;2.60;;;;;;;6.58;82.51;101798.28;4948000;28;20183;-72
2022/12/06 14:20:30;;;;;;;14.18;2.78;;;;;;;6.54;83.20;101794.78;4954602;28;20190;-72
2022/12/06 14:22:58;;;;;;;8.07;2.65;;;;;;;6.55;84.58;101801.78;4955877;28;20878;-72
2022/12/06 14:25:29;;;;;;;4.15;2.20;;;;;;;6.55;81.39;101795.69;4958373;28;20052;-73
2022/12/06 14:28:12;;;;;;;7.25;2.70;;;;;;;6.50;82.59;101796.53;4954532;28;20576;-73
2022/12/06 14:30:40;;;;;;;3.47;2.20;;;;;;;6.46;83.11;101786.91;4951208;28;20524;-73
2022/12/06 14:33:23;;;;;;;8.82;2.75;;;;;;;6.47;83.75;101796.50;4956613;28;20177;-72
2022/12/06 14:35:53;;;;;;;4.57;2.40;;;;;;;6.44;83.56;101799.16;4955857;28;20051;-73
2022/12/06 14:38:27;;;;;;;7.75;2.58;;;;;;;6.41;83.98;101799.13;4960823;28;20051;-72
2022/12/06 14:43:59;;;;;;;5.95;2.63;;;;;;;6.38;83.59;101796.50;4872138;29;20060;-72
2022/12/06 14:46:26;;;;;;;6.45;2.58;;;;;;;6.38;83.89;101799.13;4940313;28;20545;-72
2022/12/06 14:51:40;;;;;;;15.38;3.30;;;;;;;6.34;84.91;101792.13;4965956;28;20106;-72
2022/12/06 14:54:30;;;;;;;8.52;3.42;;;;;;;6.33;84.55;101788.63;4965093;28;20087;-72
2022/12/06 14:56:57;;;;;;;9.02;3.20;;;;;;;6.30;84.36;101790.38;4953847;28;20160;-72
2022/12/06 14:59:25;;;;;;;7.68;3.08;;;;;;;6.27;84.82;101791.25;4954401;28;20142;-73
2022/12/06 15:02:28;;;;;;;5.38;3.03;;;;;;;6.27;84.80;101799.09;4955374;28;20632;-72
2022/12/06 15:04:55;;;;;;;5.50;2.92;;;;;;;6.23;84.76;101792.09;4967919;28;20046;-72
2022/12/06 15:07:42;;;;;;;7.93;3.08;;;;;;;6.21;84.92;101783.34;4959089;28;20047;-72
2022/12/06 15:10:28;;;;;;;10.63;3.63;;;;;;;6.19;84.88;101783.34;4954942;28;20043;-72
2022/12/06 15:13:13;;;;;;;13.68;3.38;;;;;;;6.15;84.88;101784.25;4942538;28;20052;-72
2022/12/06 15:15:44;;;;;;;;;;;;;;;6.10;86.48;101782.47;4958933;28;20047;-72
2022/12/06 15:18:31;;;;;;;9.18;3.22;;;;;;;6.09;87.52;101775.47;4950002;28;20298;-72
2022/12/06 15:20:58;;;;;;;12.10;2.92;;;;;;;6.08;87.03;101785.06;4949810;28;20513;-72
2022/12/06 15:23:58;;;;;;;7.40;3.13;;;;;;;6.07;86.85;101791.16;4967334;28;20072;-72
2022/12/06 15:26:25;;;;;;;12.30;3.88;;;;;;;6.05;86.71;101788.56;4933467;28;20354;-72
2022/12/06 15:28:52;;;;;;;12.40;3.22;;;;;;;6.03;87.83;101782.44;4953572;28;20086;-72
2022/12/06 15:31:25;;;;;;;10.38;2.95;;;;;;;6.04;88.53;101781.56;4958967;28;20048;-73
2022/12/06 15:33:54;;;;;;;7.97;3.25;;;;;;;6.04;89.13;101786.81;4959902;28;20495;-73
2022/12/06 15:36:25;;;;;;;11.27;3.30;;;;;;;6.07;88.89;101791.16;4963340;28;20099;-73
2022/12/06 15:38:52;;;;;;;7.47;3.08;;;;;;;6.04;89.33;101786.81;4955173;28;20044;-72
2022/12/06 15:41:23;;;;;;;8.48;2.70;;;;;;;6.01;88.04;101785.91;4957737;28;20075;-73
2022/12/06 15:43:53;;;;;;;7.70;2.90;;;;;;;5.99;88.21;101785.00;4954108;28;20036;-73
2022/12/06 15:46:28;;;;;;;6.90;3.20;;;;;;;5.96;88.40;101783.25;4961401;28;20048;-73
2022/12/06 15:48:57;;;;;;;10.98;2.70;;;;;;;5.96;89.18;101782.34;4952197;28;20051;-73
2022/12/06 15:51:26;;;;;;;10.35;2.70;;;;;;;5.95;89.25;101775.41;4947591;28;20050;-72
2022/12/06 15:53:56;;;;;;;7.03;2.67;;;;;;;5.92;88.84;101778.84;4950856;28;20051;-69
2022/12/06 15:56:28;;;;;;;10.32;2.83;;;;;;;5.90;89.37;101775.38;4947805;28;20845;-72
2022/12/06 15:58:56;;;;;;;12.45;3.65;;;;;;;5.89;89.79;101773.63;4953803;28;20584;-70
2022/12/06 16:01:45;;;;;;;6.75;2.75;;;;;;;5.91;90.00;101780.63;4955762;28;20043;-70
2022/12/06 16:04:19;;;;;;;8.35;2.60;;;;;;;5.88;90.30;101777.97;4952563;28;20505;-70
2022/12/06 16:06:47;;;;;;;14.00;3.15;;;;;;;5.87;90.35;101776.22;4953549;28;20871;-70
2022/12/06 16:09:17;;;;;;;10.07;2.90;;;;;;;5.88;90.73;101777.97;4959330;28;20049;-70
2022/12/06 16:11:46;;;;;;;9.10;2.92;;;;;;;5.87;90.88;101781.47;4957114;28;20052;-71
2022/12/06 16:14:13;;;;;;;8.00;2.63;;;;;;;5.90;91.21;101780.63;4957294;28;20039;-72
2022/12/06 16:16:40;;;;;;;5.35;2.78;;;;;;;5.88;91.35;101775.38;4960765;28;20039;-72
2022/12/06 16:19:09;;;;;;;5.90;2.70;;;;;;;5.88;90.97;101779.72;4958689;28;20043;-72
2022/12/06 16:21:55;;;;;;;15.35;3.53;;;;;;;5.87;91.18;101778.84;4958514;28;20051;-70
2022/12/06 16:24:23;;;;;;;8.57;3.65;;;;;;;5.87;91.39;101784.06;4962660;28;20126;-72
2022/12/06 16:26:50;;;;;;;12.73;6.30;;;;;;;5.87;91.63;101775.38;4954936;28;20047;-73
2022/12/06 16:29:24;;;;;;;12.50;3.50;;;;;;;5.89;91.77;101779.72;4955235;28;20067;-72
2022/12/06 16:31:52;;;;;;;9.80;3.20;;;;;;;5.88;92.08;101775.38;4948906;28;20047;-72
2022/12/06 16:34:20;;;;;;;7.25;3.00;;;;;;;5.87;91.10;101781.47;4953985;28;20059;-72
2022/12/06 16:37:02;;;;;;;7.50;2.92;;;;;;;5.88;91.32;101782.34;4954872;28;20510;-72
2022/12/06 16:39:33;;;;;;;6.70;2.97;;;;;;;5.88;91.64;101780.59;4953299;28;20052;-72
2022/12/06 16:42:03;;;;;;;7.78;2.95;;;;;;;5.89;90.94;101782.34;4952620;28;20478;-72
2022/12/06 16:44:31;;;;;;;6.72;3.00;;;;;;;5.88;90.26;101780.59;4951093;28;20521;-72
2022/12/06 16:46:58;;;;;;;10.18;3.28;;;;;;;5.86;90.21;101777.09;4943291;28;20234;-72
2022/12/06 16:49:29;;;;;;;7.45;3.10;;;;;;;5.86;90.75;101778.84;4942833;28;20052;-72
2022/12/06 16:52:13;;;;;;;8.48;3.13;;;;;;;5.87;91.19;101775.38;4946064;28;20529;-72
2022/12/06 16:54:40;;;;;;;8.10;3.15;;;;;;;5.88;91.13;101774.50;4948204;28;20035;-72
2022/12/06 16:57:11;;;;;;;7.57;3.20;;;;;;;5.86;90.44;101761.38;4951603;28;20933;-72
2022/12/06 16:59:39;;;;;;;14.57;3.97;;;;;;;5.85;89.84;101764.00;4959234;28;20050;-72
2022/12/06 17:02:29;;;;;;;7.43;3.28;;;;;;;5.84;89.92;101757.91;4943050;28;20513;-73
2022/12/06 17:05:01;;;;;;;7.88;3.40;;;;;;;5.80;89.61;101750.91;4944489;28;20039;-72
2022/12/06 17:07:29;;;;;;;13.52;5.90;;;;;;;5.78;89.67;101757.00;4955974;28;20481;-72
2022/12/06 17:10:10;;;;;;;7.22;3.53;;;;;;;5.74;89.63;101753.50;4957598;28;20143;-71
2022/12/06 17:12:38;;;;;;;8.82;3.55;;;;;;;5.68;90.12;101758.69;4952940;28;20084;-71
2022/12/06 17:15:08;;;;;;;10.00;4.40;;;;;;;5.65;90.18;101749.09;4924445;28;20563;-71
2022/12/06 17:17:35;;;;;;;10.98;5.07;;;;;;;5.62;90.72;101749.06;4932892;28;20044;-70
2022/12/06 17:20:07;;;;;;;10.40;4.10;;;;;;;5.62;91.43;101746.47;4951976;28;20158;-72
2022/12/06 17:22:36;;;;;;;8.32;4.25;;;;;;;5.62;91.49;101750.84;4945937;28;20784;-72
2022/12/06 17:25:04;;;;;;;8.27;3.90;;;;;;;5.60;91.35;101750.81;4952188;28;20525;-72
2022/12/06 17:27:32;;;;;;;12.73;4.68;;;;;;;5.58;91.85;101755.19;4956067;28;20058;-72
2022/12/06 17:29:59;;;;;;;9.45;4.70;;;;;;;5.56;91.84;101755.16;4964601;28;20098;-72
2022/12/06 17:32:27;;;;;;;8.32;4.90;;;;;;;5.53;92.40;101752.53;4950320;28;21717;-73
2022/12/06 17:34:54;;;;;;;13.95;5.20;;;;;;;5.52;92.50;101749.91;4954108;28;20054;-73
2022/12/06 17:37:21;;;;;;;8.25;5.13;;;;;;;5.53;92.98;101755.16;4948326;28;20036;-73
2022/12/06 17:39:48;;;;;;;8.13;5.18;;;;;;;5.54;93.35;101746.44;4952637;28;20047;-73
2022/12/06 17:45:03;;;;;;;10.93;5.25;;;;;;;5.53;93.47;101739.47;4938993;28;20050;-72
2022/12/06 17:47:31;;;;;;;9.15;5.95;;;;;;;5.56;93.94;101733.38;4959632;28;20054;-70
2022/12/06 17:49:58;;;;;;;11.57;5.95;;;;;;;5.59;93.95;101741.22;4950563;28;20048;-69
2022/12/06 17:52:26;;;;;;;12.65;5.60;;;;;;;5.57;94.16;101735.97;4952198;28;20099;-69
2022/12/06 17:54:53;;;;;;;12.40;7.10;;;;;;;5.57;94.27;101737.72;4951662;28;20438;-70
2022/12/06 17:57:20;;;;;;;11.07;6.00;;;;;;;5.56;94.56;101734.22;4948269;28;20513;-68
2022/12/06 17:59:48;;;;;;;13.90;6.03;;;;;;;5.57;94.64;101741.22;4947272;28;20035;-69
2022/12/06 18:02:22;;;;;;;9.38;6.03;;;;;;;5.56;94.61;101741.22;4950036;28;20052;-72
2022/12/06 18:04:51;;;;;;;;;;;;;;;5.50;94.81;101735.94;4950711;28;20087;-71